ASY628 YAMB-YAMB
Flight info
| Callsign | ASY628 |
|---|---|
| Flight time | 0h 6m |
| Altitude | 34000 |
| Route | N0438F340 TATEN DCT AKMIR DCT COM DCT IRSOM DCT URBEN DCT PADBU DCT 51S140E 59S130E 64S120E DCT YWKS DCT 60S130E 50S140E DCT URBEN DCT VIMAP Y327 MAKRL/N0423F380 J163 CB W137 AVBEG W184 MUDGI/N0427F370 H66 TW/N0338F190 W411 DULIN DCT |
| Aircraft | C17/H-SDFGHIJ5KM1RTUWXYZ/LB101 |
Departure
| Time | 2026-05-06 03:51 |
|---|---|
| Airport | RAAF Base Amberley (YAMB) |
Arrival
| Time | 2026-05-06 03:57 |
|---|---|
| Airport | RAAF Base Amberley (YAMB) |
| Time | Latitude | Longitude | Altitude | Speed | Heading |
|---|---|---|---|---|---|
| 2026-05-06 03:41 | -26.90849 | 153.29065 | 41110 ft | 515 kts | 141° |
| 2026-05-06 03:41 | -26.93576 | 153.31592 | 40890 ft | 506 kts | 158° |
| 2026-05-06 03:42 | -26.96732 | 153.33106 | 40190 ft | 483 kts | 177° |
| 2026-05-06 03:42 | -26.99952 | 153.33706 | 39520 ft | 452 kts | 193° |
| 2026-05-06 03:42 | -27.02869 | 153.33217 | 38872 ft | 408 kts | 214° |
| 2026-05-06 03:42 | -27.05216 | 153.31768 | 38169 ft | 370 kts | 231° |
| 2026-05-06 03:43 | -27.06823 | 153.29734 | 37369 ft | 334 kts | 252° |
| 2026-05-06 03:43 | -27.07604 | 153.27351 | 36411 ft | 322 kts | 263° |
| 2026-05-06 03:43 | -27.07991 | 153.24889 | 35496 ft | 320 kts | 268° |
| 2026-05-06 03:43 | -27.08216 | 153.22428 | 35072 ft | 305 kts | 270° |
| 2026-05-06 03:44 | -27.08376 | 153.20183 | 34583 ft | 280 kts | 270° |
| 2026-05-06 03:44 | -27.08510 | 153.17849 | 33616 ft | 312 kts | 270° |
| 2026-05-06 03:44 | -27.08632 | 153.15403 | 32634 ft | 316 kts | 271° |
| 2026-05-06 03:44 | -27.08754 | 153.12924 | 31692 ft | 319 kts | 271° |
| 2026-05-06 03:45 | -27.08883 | 153.10433 | 30752 ft | 322 kts | 271° |
| 2026-05-06 03:45 | -27.09023 | 153.07916 | 29783 ft | 325 kts | 271° |
| 2026-05-06 03:45 | -27.09171 | 153.05374 | 28720 ft | 327 kts | 271° |
| 2026-05-06 03:45 | -27.09317 | 153.02818 | 27702 ft | 329 kts | 271° |
| 2026-05-06 03:46 | -27.09457 | 153.00098 | 26730 ft | 377 kts | 270° |
| 2026-05-06 03:46 | -27.09589 | 152.97146 | 25812 ft | 376 kts | 270° |
| 2026-05-06 03:46 | -27.09714 | 152.94242 | 24908 ft | 370 kts | 270° |
| 2026-05-06 03:46 | -27.09833 | 152.91376 | 24004 ft | 364 kts | 270° |
| 2026-05-06 03:47 | -27.09945 | 152.88550 | 23025 ft | 360 kts | 270° |
| 2026-05-06 03:47 | -27.10048 | 152.85801 | 22003 ft | 356 kts | 270° |
| 2026-05-06 03:47 | -27.10151 | 152.83036 | 21008 ft | 351 kts | 270° |
| 2026-05-06 03:47 | -27.10252 | 152.80313 | 20046 ft | 347 kts | 270° |
| 2026-05-06 03:48 | -27.10350 | 152.77626 | 19119 ft | 343 kts | 270° |
| 2026-05-06 03:48 | -27.10446 | 152.74926 | 17541 ft | 352 kts | 269° |
| 2026-05-06 03:48 | -27.10973 | 152.72243 | 15821 ft | 358 kts | 252° |
| 2026-05-06 03:48 | -27.12152 | 152.69787 | 14193 ft | 358 kts | 236° |
| 2026-05-06 03:49 | -27.13867 | 152.67773 | 12482 ft | 355 kts | 220° |
| 2026-05-06 03:49 | -27.15956 | 152.66364 | 10797 ft | 348 kts | 205° |
| 2026-05-06 03:49 | -27.18263 | 152.65624 | 9098 ft | 342 kts | 190° |
| 2026-05-06 03:49 | -27.20533 | 152.65419 | 7881 ft | 289 kts | 185° |
| 2026-05-06 03:50 | -27.22426 | 152.65262 | 6848 ft | 272 kts | 185° |
| 2026-05-06 03:50 | -27.24277 | 152.65092 | 5973 ft | 257 kts | 184° |
| 2026-05-06 03:50 | -27.26066 | 152.64939 | 5208 ft | 264 kts | 184° |
| 2026-05-06 03:50 | -27.27944 | 152.64782 | 5092 ft | 263 kts | 184° |
| 2026-05-06 03:51 | -27.29728 | 152.64458 | 5085 ft | 263 kts | 197° |
| 2026-05-06 03:51 | -27.31449 | 152.63718 | 5084 ft | 263 kts | 202° |
| 2026-05-06 03:51 | -27.33121 | 152.62906 | 5085 ft | 262 kts | 203° |
| 2026-05-06 03:51 | -27.34789 | 152.62109 | 5084 ft | 264 kts | 200° |
| 2026-05-06 03:52 | -27.36532 | 152.61497 | 5082 ft | 261 kts | 192° |
| 2026-05-06 03:52 | -27.38342 | 152.61170 | 4888 ft | 266 kts | 184° |
| 2026-05-06 03:52 | -27.40171 | 152.61169 | 4627 ft | 260 kts | 174° |
| 2026-05-06 03:52 | -27.41966 | 152.61541 | 3505 ft | 272 kts | 160° |
| 2026-05-06 03:53 | -27.43494 | 152.62220 | 2537 ft | 214 kts | 157° |
| 2026-05-06 03:53 | -27.44856 | 152.62826 | 2453 ft | 208 kts | 158° |
| 2026-05-06 03:53 | -27.46210 | 152.63433 | 2166 ft | 218 kts | 155° |
| 2026-05-06 03:53 | -27.47586 | 152.64124 | 2088 ft | 207 kts | 154° |
| 2026-05-06 03:54 | -27.48843 | 152.64747 | 2160 ft | 187 kts | 156° |
| 2026-05-06 03:54 | -27.50035 | 152.65293 | 2571 ft | 189 kts | 158° |
| 2026-05-06 03:54 | -27.51304 | 152.65813 | 2651 ft | 199 kts | 159° |
| 2026-05-06 03:54 | -27.52475 | 152.66284 | 2208 ft | 155 kts | 159° |
| 2026-05-06 03:55 | -27.53484 | 152.66707 | 1923 ft | 152 kts | 159° |
| 2026-05-06 03:55 | -27.54463 | 152.67132 | 1674 ft | 149 kts | 158° |
| 2026-05-06 03:55 | -27.55446 | 152.67569 | 1430 ft | 154 kts | 157° |
| 2026-05-06 03:55 | -27.56437 | 152.68019 | 1226 ft | 151 kts | 158° |
| 2026-05-06 03:56 | -27.57416 | 152.68455 | 1029 ft | 156 kts | 159° |
| 2026-05-06 03:56 | -27.58466 | 152.68924 | 830 ft | 166 kts | 158° |
| 2026-05-06 03:56 | -27.59553 | 152.69377 | 679 ft | 162 kts | 159° |
| 2026-05-06 03:56 | -27.60623 | 152.69827 | 462 ft | 169 kts | 158° |
| 2026-05-06 03:57 | -27.61731 | 152.70315 | 236 ft | 173 kts | 156° |
| 2026-05-06 03:57 | -27.62771 | 152.70787 | 108 ft | 139 kts | 155° |
| 2026-05-06 03:57 | -27.63507 | 152.71113 | 96 ft | 81 kts | 160° |
| 2026-05-06 03:57 | -27.63887 | 152.71276 | 101 ft | 48 kts | 160° |
| 2026-05-06 03:58 | -27.64111 | 152.71337 | 101 ft | 19 kts | 224° |
| 2026-05-06 03:58 | -27.64171 | 152.71221 | 102 ft | 11 kts | 281° |
| 2026-05-06 03:58 | -27.64052 | 152.71134 | 101 ft | 30 kts | 340° |
| 2026-05-06 03:58 | -27.63879 | 152.71059 | 101 ft | 27 kts | 338° |
| 2026-05-06 03:59 | -27.63703 | 152.70984 | 100 ft | 28 kts | 340° |
| 2026-05-06 03:59 | -27.63528 | 152.70907 | 97 ft | 27 kts | 339° |
| 2026-05-06 03:59 | -27.63353 | 152.70830 | 97 ft | 26 kts | 339° |
| 2026-05-06 03:59 | -27.63186 | 152.70756 | 97 ft | 26 kts | 339° |
| 2026-05-06 04:00 | -27.63021 | 152.70684 | 98 ft | 25 kts | 338° |
| 2026-05-06 04:00 | -27.62867 | 152.70610 | 101 ft | 24 kts | 332° |
| 2026-05-06 04:00 | -27.62724 | 152.70549 | 98 ft | 21 kts | 340° |
| 2026-05-06 04:00 | -27.62582 | 152.70489 | 97 ft | 23 kts | 340° |
| 2026-05-06 04:01 | -27.62430 | 152.70424 | 96 ft | 24 kts | 337° |
| 2026-05-06 04:01 | -27.62279 | 152.70358 | 96 ft | 23 kts | 339° |
| 2026-05-06 04:01 | -27.62129 | 152.70295 | 96 ft | 22 kts | 345° |
| 2026-05-06 04:01 | -27.62077 | 152.70209 | 94 ft | 16 kts | 253° |
| 2026-05-06 04:02 | -27.62137 | 152.70149 | 96 ft | 8 kts | 171° |
| 2026-05-06 04:02 | -27.62166 | 152.70160 | 96 ft | 0 kts | 159° |